sensor_id;sensor_type;location;lat;lon;timestamp;pressure;altitude;pressure_sealevel;temperature;humidity
2036;BME280;23642;42.658;23.350;2022-09-19T00:01:22;54539.00;;;-146.31;91.96
2036;BME280;23642;42.658;23.350;2022-09-19T00:03:53;54565.84;;;-146.31;92.11
2036;BME280;23642;42.658;23.350;2022-09-19T00:06:21;54539.00;;;-146.31;92.81
2036;BME280;23642;42.658;23.350;2022-09-19T00:08:48;54516.28;;;-146.31;92.80
2036;BME280;23642;42.658;23.350;2022-09-19T00:11:16;54534.88;;;-146.31;92.37
2036;BME280;23642;42.658;23.350;2022-09-19T00:13:45;54580.31;;;-146.31;92.76
2036;BME280;23642;42.658;23.350;2022-09-19T00:16:17;54518.38;;;-146.31;93.47
2036;BME280;23642;42.658;23.350;2022-09-19T00:18:45;54516.28;;;-146.31;93.80
2036;BME280;23642;42.658;23.350;2022-09-19T00:21:18;54495.66;;;-146.31;94.25
2036;BME280;23642;42.658;23.350;2022-09-19T00:23:45;54458.47;;;-146.31;94.47
2036;BME280;23642;42.658;23.350;2022-09-19T00:26:29;54464.69;;;-146.31;94.73
2036;BME280;23642;42.658;23.350;2022-09-19T00:28:56;54444.03;;;-146.31;95.06
2036;BME280;23642;42.658;23.350;2022-09-19T00:31:24;54398.59;;;-146.31;95.22
2036;BME280;23642;42.658;23.350;2022-09-19T00:33:51;54382.09;;;-146.31;95.04
2036;BME280;23642;42.658;23.350;2022-09-19T00:36:18;54353.19;;;-146.31;94.78
2036;BME280;23642;42.658;23.350;2022-09-19T00:38:45;54406.84;;;-146.31;94.01
2036;BME280;23642;42.658;23.350;2022-09-19T00:41:14;54417.19;;;-146.31;94.71
2036;BME280;23642;42.658;23.350;2022-09-19T00:43:48;54400.66;;;-146.31;94.93
2036;BME280;23642;42.658;23.350;2022-09-19T00:46:16;54361.44;;;-146.31;95.51
2036;BME280;23642;42.658;23.350;2022-09-19T00:48:47;54320.13;;;-146.31;96.08
2036;BME280;23642;42.658;23.350;2022-09-19T00:51:20;54303.63;;;-146.31;95.99
2036;BME280;23642;42.658;23.350;2022-09-19T00:53:50;54293.28;;;-146.31;96.41
2036;BME280;23642;42.658;23.350;2022-09-19T00:56:18;54239.63;;;-146.31;96.67
2036;BME280;23642;42.658;23.350;2022-09-19T00:58:45;54221.03;;;-146.31;96.72
2036;BME280;23642;42.658;23.350;2022-09-19T01:01:14;54233.41;;;-146.31;96.72
2036;BME280;23642;42.658;23.350;2022-09-19T01:03:42;54175.59;;;-146.31;96.90
2036;BME280;23642;42.658;23.350;2022-09-19T01:06:23;54144.63;;;-146.31;96.92
2036;BME280;23642;42.658;23.350;2022-09-19T01:09:05;54136.38;;;-146.31;97.09
2036;BME280;23642;42.658;23.350;2022-09-19T01:11:54;54047.59;;;-146.31;96.94
2036;BME280;23642;42.658;23.350;2022-09-19T01:14:33;54105.41;;;-146.31;96.16
2036;BME280;23642;42.658;23.350;2022-09-19T01:17:12;54138.44;;;-146.31;95.96
2036;BME280;23642;42.658;23.350;2022-09-19T01:22:55;54095.09;;;-146.31;96.34
2036;BME280;23642;42.658;23.350;2022-09-19T01:25:31;54101.28;;;-146.31;96.32
2036;BME280;23642;42.658;23.350;2022-09-19T01:28:08;54062.06;;;-146.31;96.41
2036;BME280;23642;42.658;23.350;2022-09-19T01:30:44;54080.63;;;-146.31;96.26
2036;BME280;23642;42.658;23.350;2022-09-19T01:33:14;54076.50;;;-146.31;96.69
2036;BME280;23642;42.658;23.350;2022-09-19T01:35:45;54064.13;;;-146.31;96.82
2036;BME280;23642;42.658;23.350;2022-09-19T01:38:19;54037.28;;;-146.31;96.76
2036;BME280;23642;42.658;23.350;2022-09-19T01:40:49;54022.81;;;-146.31;96.89
2036;BME280;23642;42.658;23.350;2022-09-19T01:43:19;53981.53;;;-146.31;97.34
2036;BME280;23642;42.658;23.350;2022-09-19T01:45:47;53965.03;;;-146.31;97.08
2036;BME280;23642;42.658;23.350;2022-09-19T01:48:18;53942.31;;;-146.31;97.20
2036;BME280;23642;42.658;23.350;2022-09-19T01:50:56;53950.56;;;-146.31;97.39
2036;BME280;23642;42.658;23.350;2022-09-19T01:53:33;53903.09;;;-146.31;97.16
2036;BME280;23642;42.658;23.350;2022-09-19T01:56:08;53934.06;;;-146.31;96.94
2036;BME280;23642;42.658;23.350;2022-09-19T01:58:42;53898.94;;;-146.31;97.18
2036;BME280;23642;42.658;23.350;2022-09-19T02:01:18;53907.22;;;-146.31;97.29
2036;BME280;23642;42.658;23.350;2022-09-19T02:03:50;53909.28;;;-146.31;97.38
2036;BME280;23642;42.658;23.350;2022-09-19T02:06:24;53851.47;;;-146.31;97.43
2036;BME280;23642;42.658;23.350;2022-09-19T02:08:57;53865.91;;;-146.31;96.56
2036;BME280;23642;42.658;23.350;2022-09-19T02:11:26;53884.50;;;-146.31;95.72
2036;BME280;23642;42.658;23.350;2022-09-19T02:13:58;53905.16;;;-146.31;95.98
2036;BME280;23642;42.658;23.350;2022-09-19T02:16:30;53915.47;;;-146.31;95.75
2036;BME280;23642;42.658;23.350;2022-09-19T02:18:59;53938.19;;;-146.31;95.72
2036;BME280;23642;42.658;23.350;2022-09-19T02:21:31;53929.91;;;-146.31;95.88
2036;BME280;23642;42.658;23.350;2022-09-19T02:24:05;53944.38;;;-146.31;96.56
2036;BME280;23642;42.658;23.350;2022-09-19T02:26:35;53915.47;;;-146.31;96.82
2036;BME280;23642;42.658;23.350;2022-09-19T02:29:07;53882.44;;;-146.31;96.99
2036;BME280;23642;42.658;23.350;2022-09-19T02:31:35;53886.56;;;-146.31;96.64
2036;BME280;23642;42.658;23.350;2022-09-19T02:34:05;53888.63;;;-146.31;97.01
2036;BME280;23642;42.658;23.350;2022-09-19T02:36:39;53876.25;;;-146.31;96.64
2036;BME280;23642;42.658;23.350;2022-09-19T02:39:13;53859.72;;;-146.31;96.71
2036;BME280;23642;42.658;23.350;2022-09-19T02:41:46;53841.16;;;-146.31;97.34
2036;BME280;23642;42.658;23.350;2022-09-19T02:44:22;53820.50;;;-146.31;97.31
2036;BME280;23642;42.658;23.350;2022-09-19T02:46:55;53801.91;;;-146.31;96.71
2036;BME280;23642;42.658;23.350;2022-09-19T02:49:35;53849.41;;;-146.31;96.68
2036;BME280;23642;42.658;23.350;2022-09-19T02:52:07;53853.53;;;-146.31;96.91
2036;BME280;23642;42.658;23.350;2022-09-19T02:54:40;53849.41;;;-146.31;97.09
2036;BME280;23642;42.658;23.350;2022-09-19T02:57:10;53839.09;;;-146.31;96.86
2036;BME280;23642;42.658;23.350;2022-09-19T02:59:42;53795.72;;;-146.31;97.14
2036;BME280;23642;42.658;23.350;2022-09-19T03:02:14;53773.03;;;-146.31;97.44
2036;BME280;23642;42.658;23.350;2022-09-19T03:04:47;53709.03;;;-146.31;97.83
2036;BME280;23642;42.658;23.350;2022-09-19T03:07:17;53659.47;;;-146.31;97.99
2036;BME280;23642;42.658;23.350;2022-09-19T03:09:56;53676.00;;;-146.31;97.43
2036;BME280;23642;42.658;23.350;2022-09-19T03:12:29;53706.97;;;-146.31;97.82
2036;BME280;23642;42.658;23.350;2022-09-19T03:15:01;53618.19;;;-146.31;98.11
2036;BME280;23642;42.658;23.350;2022-09-19T03:17:35;53572.78;;;-146.31;98.11
2036;BME280;23642;42.658;23.350;2022-09-19T03:20:05;53558.31;;;-146.31;98.23
2036;BME280;23642;42.658;23.350;2022-09-19T03:22:37;53500.53;;;-146.31;98.25
2036;BME280;23642;42.658;23.350;2022-09-19T03:25:06;53494.34;;;-146.31;98.44
2036;BME280;23642;42.658;23.350;2022-09-19T03:27:34;53508.78;;;-146.31;98.01
2036;BME280;23642;42.658;23.350;2022-09-19T03:30:06;53502.59;;;-146.31;98.06
2036;BME280;23642;42.658;23.350;2022-09-19T03:32:33;53533.56;;;-146.31;98.14
2036;BME280;23642;42.658;23.350;2022-09-19T03:35:00;53494.34;;;-146.31;97.97
2036;BME280;23642;42.658;23.350;2022-09-19T03:37:28;53494.34;;;-146.31;97.88
2036;BME280;23642;42.658;23.350;2022-09-19T03:39:56;53475.75;;;-146.31;98.42
2036;BME280;23642;42.658;23.350;2022-09-19T03:42:23;53477.81;;;-146.31;97.97
2036;BME280;23642;42.658;23.350;2022-09-19T03:44:50;53481.94;;;-146.31;98.49
2036;BME280;23642;42.658;23.350;2022-09-19T03:47:19;53451.00;;;-146.31;98.11
2036;BME280;23642;42.658;23.350;2022-09-19T03:49:46;53451.00;;;-146.31;98.53
2036;BME280;23642;42.658;23.350;2022-09-19T03:52:15;53382.88;;;-146.31;98.26
2036;BME280;23642;42.658;23.350;2022-09-19T03:54:43;53411.75;;;-146.31;98.99
2036;BME280;23642;42.658;23.350;2022-09-19T03:57:10;53374.59;;;-146.31;98.68
2036;BME280;23642;42.658;23.350;2022-09-19T03:59:37;53372.53;;;-146.31;98.58
2036;BME280;23642;42.658;23.350;2022-09-19T04:02:05;53314.75;;;-146.31;98.87
2036;BME280;23642;42.658;23.350;2022-09-19T04:04:34;53296.16;;;-146.31;99.22
2036;BME280;23642;42.658;23.350;2022-09-19T04:07:01;53234.25;;;-146.31;99.10
2036;BME280;23642;42.658;23.350;2022-09-19T04:09:28;53201.22;;;-146.31;99.01
2036;BME280;23642;42.658;23.350;2022-09-19T04:11:56;53207.41;;;-146.31;99.24
2036;BME280;23642;42.658;23.350;2022-09-19T04:14:24;53172.31;;;-146.31;99.44
2036;BME280;23642;42.658;23.350;2022-09-19T04:16:52;53170.25;;;-146.31;99.16
2036;BME280;23642;42.658;23.350;2022-09-19T04:19:19;53141.38;;;-146.31;99.03
2036;BME280;23642;42.658;23.350;2022-09-19T04:21:48;53091.81;;;-146.31;99.49
2036;BME280;23642;42.658;23.350;2022-09-19T04:24:15;53031.97;;;-146.31;99.50
2036;BME280;23642;42.658;23.350;2022-09-19T04:26:47;53034.03;;;-146.31;99.57
2036;BME280;23642;42.658;23.350;2022-09-19T04:29:15;53021.66;;;-146.31;99.61
2036;BME280;23642;42.658;23.350;2022-09-19T04:31:45;52994.81;;;-146.31;99.36
2036;BME280;23642;42.658;23.350;2022-09-19T04:34:30;52965.94;;;-146.31;99.76
2036;BME280;23642;42.658;23.350;2022-09-19T04:37:00;52943.22;;;-146.31;99.24
2036;BME280;23642;42.658;23.350;2022-09-19T04:39:28;52932.91;;;-146.31;99.74
2036;BME280;23642;42.658;23.350;2022-09-19T04:41:55;52887.50;;;-146.31;99.36
2036;BME280;23642;42.658;23.350;2022-09-19T04:44:23;52835.91;;;-146.31;99.83
2036;BME280;23642;42.658;23.350;2022-09-19T04:46:54;52811.13;;;-146.31;99.47
2036;BME280;23642;42.658;23.350;2022-09-19T04:49:21;52846.22;;;-146.31;99.51
2036;BME280;23642;42.658;23.350;2022-09-19T04:51:48;52811.13;;;-146.31;99.30
2036;BME280;23642;42.658;23.350;2022-09-19T04:54:20;52794.63;;;-146.31;99.42
2036;BME280;23642;42.658;23.350;2022-09-19T04:56:47;52780.19;;;-146.31;99.49
2036;BME280;23642;42.658;23.350;2022-09-19T04:59:14;52732.72;;;-146.31;99.46
2036;BME280;23642;42.658;23.350;2022-09-19T05:01:40;52722.41;;;-146.31;99.16
2036;BME280;23642;42.658;23.350;2022-09-19T05:04:09;52745.09;;;-146.31;98.90
2036;BME280;23642;42.658;23.350;2022-09-19T05:06:36;52831.78;;;-146.31;97.59
2036;BME280;23642;42.658;23.350;2022-09-19T05:09:03;53040.22;;;-146.31;95.49
2036;BME280;23642;42.658;23.350;2022-09-19T05:11:31;53223.94;;;-146.31;93.66
2036;BME280;23642;42.658;23.350;2022-09-19T05:13:58;53349.84;;;-146.31;91.98
2036;BME280;23642;42.658;23.350;2022-09-19T05:16:26;53554.19;;;-146.31;89.07
2036;BME280;23642;42.658;23.350;2022-09-19T05:18:54;53642.97;;;-146.31;88.45
2036;BME280;23642;42.658;23.350;2022-09-19T05:21:20;53762.69;;;-146.31;85.25
2036;BME280;23642;42.658;23.350;2022-09-19T05:23:47;53903.09;;;-146.31;83.22
2036;BME280;23642;42.658;23.350;2022-09-19T05:26:15;53998.06;;;-146.31;81.19
2036;BME280;23642;42.658;23.350;2022-09-19T05:28:44;54055.84;;;-146.31;80.30
2036;BME280;23642;42.658;23.350;2022-09-19T05:31:11;54115.72;;;-146.31;80.46
2036;BME280;23642;42.658;23.350;2022-09-19T05:33:38;54130.19;;;-146.31;79.88
2036;BME280;23642;42.658;23.350;2022-09-19T05:36:06;54163.22;;;-146.31;80.24
2036;BME280;23642;42.658;23.350;2022-09-19T05:38:33;54157.03;;;-146.31;80.88
2036;BME280;23642;42.658;23.350;2022-09-19T05:41:02;54146.69;;;-146.31;81.02
2036;BME280;23642;42.658;23.350;2022-09-19T05:43:30;54148.78;;;-146.31;81.19
2036;BME280;23642;42.658;23.350;2022-09-19T05:45:59;54128.13;;;-146.31;81.44
2036;BME280;23642;42.658;23.350;2022-09-19T05:48:26;54121.94;;;-146.31;82.15
2036;BME280;23642;42.658;23.350;2022-09-19T05:50:55;54109.53;;;-146.31;82.75
2036;BME280;23642;42.658;23.350;2022-09-19T05:53:22;54113.66;;;-146.31;82.70
2036;BME280;23642;42.658;23.350;2022-09-19T05:56:07;54105.41;;;-146.31;82.23
2036;BME280;23642;42.658;23.350;2022-09-19T05:58:35;54134.31;;;-146.31;82.60
2036;BME280;23642;42.658;23.350;2022-09-19T06:01:08;54101.28;;;-146.31;82.36
2036;BME280;23642;42.658;23.350;2022-09-19T06:03:36;54080.63;;;-146.31;81.87
2036;BME280;23642;42.658;23.350;2022-09-19T06:06:06;54084.75;;;-146.31;81.59
2036;BME280;23642;42.658;23.350;2022-09-19T06:08:37;54124.00;;;-146.31;81.48
2036;BME280;23642;42.658;23.350;2022-09-19T06:11:04;54130.19;;;-146.31;80.77
2036;BME280;23642;42.658;23.350;2022-09-19T06:13:31;54109.53;;;-146.31;80.90
2036;BME280;23642;42.658;23.350;2022-09-19T06:16:13;54124.00;;;-146.31;80.66
2036;BME280;23642;42.658;23.350;2022-09-19T06:18:40;54111.59;;;-146.31;79.87
2036;BME280;23642;42.658;23.350;2022-09-19T06:21:07;54130.19;;;-146.31;79.25
2036;BME280;23642;42.658;23.350;2022-09-19T06:23:35;54103.34;;;-146.31;79.23
2036;BME280;23642;42.658;23.350;2022-09-19T06:26:03;54132.25;;;-146.31;77.97
2036;BME280;23642;42.658;23.350;2022-09-19T06:28:30;54190.06;;;-146.31;78.21
2036;BME280;23642;42.658;23.350;2022-09-19T06:30:59;54159.09;;;-146.31;77.40
2036;BME280;23642;42.658;23.350;2022-09-19T06:33:30;54140.50;;;-146.31;77.43
2036;BME280;23642;42.658;23.350;2022-09-19T06:35:57;54148.78;;;-146.31;76.48
2036;BME280;23642;42.658;23.350;2022-09-19T06:38:25;54181.81;;;-146.31;75.97
2036;BME280;23642;42.658;23.350;2022-09-19T06:40:52;54161.16;;;-146.31;75.60
2036;BME280;23642;42.658;23.350;2022-09-19T06:43:23;54192.13;;;-146.31;75.24
2036;BME280;23642;42.658;23.350;2022-09-19T06:45:52;54185.94;;;-146.31;75.57
2036;BME280;23642;42.658;23.350;2022-09-19T06:48:19;54192.13;;;-146.31;75.06
2036;BME280;23642;42.658;23.350;2022-09-19T06:50:49;54204.50;;;-146.31;74.79
2036;BME280;23642;42.658;23.350;2022-09-19T06:53:17;54260.25;;;-146.31;73.20
2036;BME280;23642;42.658;23.350;2022-09-19T06:55:48;54214.84;;;-146.31;75.32
2036;BME280;23642;42.658;23.350;2022-09-19T06:58:15;54270.59;;;-146.31;72.45
2036;BME280;23642;42.658;23.350;2022-09-19T07:00:42;54270.59;;;-146.31;72.99
2036;BME280;23642;42.658;23.350;2022-09-19T07:03:11;54266.44;;;-146.31;72.71
2036;BME280;23642;42.658;23.350;2022-09-19T07:05:40;54258.19;;;-146.31;72.50
2036;BME280;23642;42.658;23.350;2022-09-19T07:08:10;54266.44;;;-146.31;71.23
2036;BME280;23642;42.658;23.350;2022-09-19T07:10:38;54316.00;;;-146.31;70.60
2036;BME280;23642;42.658;23.350;2022-09-19T07:13:08;54295.34;;;-146.31;71.44
2036;BME280;23642;42.658;23.350;2022-09-19T07:15:38;54266.44;;;-146.31;71.16
2036;BME280;23642;42.658;23.350;2022-09-19T07:18:06;54303.63;;;-146.31;69.19
2036;BME280;23642;42.658;23.350;2022-09-19T07:20:37;54320.13;;;-146.31;68.96
2036;BME280;23642;42.658;23.350;2022-09-19T07:23:06;54386.22;;;-146.31;66.67
2036;BME280;23642;42.658;23.350;2022-09-19T07:25:36;54371.75;;;-146.31;66.27
2036;BME280;23642;42.658;23.350;2022-09-19T07:28:05;54396.53;;;-146.31;66.24
2036;BME280;23642;42.658;23.350;2022-09-19T07:30:42;54398.59;;;-146.31;66.44
2036;BME280;23642;42.658;23.350;2022-09-19T07:33:15;54417.19;;;-146.31;66.54
2036;BME280;23642;42.658;23.350;2022-09-19T07:35:48;54406.84;;;-146.31;67.18
2036;BME280;23642;42.658;23.350;2022-09-19T07:38:19;54406.84;;;-146.31;65.68
2036;BME280;23642;42.658;23.350;2022-09-19T07:40:52;54441.97;;;-146.31;65.58
2036;BME280;23642;42.658;23.350;2022-09-19T07:43:37;54382.09;;;-146.31;65.90
2036;BME280;23642;42.658;23.350;2022-09-19T07:46:04;54448.16;;;-146.31;64.37
2036;BME280;23642;42.658;23.350;2022-09-19T07:48:31;54456.41;;;-146.31;62.83
2036;BME280;23642;42.658;23.350;2022-09-19T07:50:58;54462.59;;;-146.31;63.77
2036;BME280;23642;42.658;23.350;2022-09-19T07:53:28;54489.44;;;-146.31;64.09
2036;BME280;23642;42.658;23.350;2022-09-19T07:55:58;54489.44;;;-146.31;63.73
2036;BME280;23642;42.658;23.350;2022-09-19T07:58:26;54460.53;;;-146.31;64.23
2036;BME280;23642;42.658;23.350;2022-09-19T08:00:58;54456.41;;;-146.31;62.78
2036;BME280;23642;42.658;23.350;2022-09-19T08:03:26;54491.50;;;-146.31;62.49
2036;BME280;23642;42.658;23.350;2022-09-19T08:06:01;54456.41;;;-146.31;62.55
2036;BME280;23642;42.658;23.350;2022-09-19T08:08:28;54448.16;;;-146.31;62.44
2036;BME280;23642;42.658;23.350;2022-09-19T08:10:59;54419.25;;;-146.31;63.93
2036;BME280;23642;42.658;23.350;2022-09-19T08:13:28;54433.69;;;-146.31;62.63
2036;BME280;23642;42.658;23.350;2022-09-19T08:15:58;54427.50;;;-146.31;62.13
2036;BME280;23642;42.658;23.350;2022-09-19T08:18:27;54503.91;;;-146.31;61.40
2036;BME280;23642;42.658;23.350;2022-09-19T08:20:56;54514.22;;;-146.31;61.34
2036;BME280;23642;42.658;23.350;2022-09-19T08:23:23;54545.19;;;-146.31;60.25
2036;BME280;23642;42.658;23.350;2022-09-19T08:25:52;54547.28;;;-146.31;60.06
2036;BME280;23642;42.658;23.350;2022-09-19T08:28:22;54592.69;;;-146.31;59.69
2036;BME280;23642;42.658;23.350;2022-09-19T08:30:57;54563.78;;;-146.31;61.33
2036;BME280;23642;42.658;23.350;2022-09-19T08:33:36;54559.66;;;-146.31;60.37
2036;BME280;23642;42.658;23.350;2022-09-19T08:36:05;54539.00;;;-146.31;59.69
2036;BME280;23642;42.658;23.350;2022-09-19T08:38:35;54536.94;;;-146.31;59.91
2036;BME280;23642;42.658;23.350;2022-09-19T08:41:22;54555.53;;;-146.31;58.62
2036;BME280;23642;42.658;23.350;2022-09-19T08:43:57;54572.03;;;-146.31;58.91
2036;BME280;23642;42.658;23.350;2022-09-19T08:46:34;54613.34;;;-146.31;58.43
2036;BME280;23642;42.658;23.350;2022-09-19T08:49:10;54621.59;;;-146.31;59.46
2036;BME280;23642;42.658;23.350;2022-09-19T08:51:49;54673.22;;;-146.31;59.59
2036;BME280;23642;42.658;23.350;2022-09-19T08:54:27;54710.41;;;-146.31;59.33
2036;BME280;23642;42.658;23.350;2022-09-19T08:56:56;54642.25;;;-146.31;59.76
2036;BME280;23642;42.658;23.350;2022-09-19T08:59:30;54660.84;;;-146.31;58.81
2036;BME280;23642;42.658;23.350;2022-09-19T09:02:05;54615.41;;;-146.31;59.12
2036;BME280;23642;42.658;23.350;2022-09-19T09:04:34;54605.09;;;-146.31;58.15
2036;BME280;23642;42.658;23.350;2022-09-19T09:07:16;54603.03;;;-146.31;57.31
2036;BME280;23642;42.658;23.350;2022-09-19T09:10:04;54598.88;;;-146.31;56.24
2036;BME280;23642;42.658;23.350;2022-09-19T09:12:49;54588.56;;;-146.31;55.40
2036;BME280;23642;42.658;23.350;2022-09-19T09:15:25;54658.78;;;-146.31;55.11
2036;BME280;23642;42.658;23.350;2022-09-19T09:18:05;54654.66;;;-146.31;55.16
2036;BME280;23642;42.658;23.350;2022-09-19T09:20:44;54648.44;;;-146.31;55.21
2036;BME280;23642;42.658;23.350;2022-09-19T09:23:17;54689.75;;;-146.31;52.76
2036;BME280;23642;42.658;23.350;2022-09-19T09:25:47;54745.50;;;-146.31;51.33
2036;BME280;23642;42.658;23.350;2022-09-19T09:28:19;54815.72;;;-146.31;49.17
2036;BME280;23642;42.658;23.350;2022-09-19T09:30:58;54892.13;;;-146.31;47.11
2036;BME280;23642;42.658;23.350;2022-09-19T09:33:35;54826.03;;;-146.31;48.42
2036;BME280;23642;42.658;23.350;2022-09-19T09:36:11;54751.69;;;-146.31;49.41
2036;BME280;23642;42.658;23.350;2022-09-19T09:38:44;54801.25;;;-146.31;47.29
2036;BME280;23642;42.658;23.350;2022-09-19T09:41:20;55001.56;;;-146.31;44.06
2036;BME280;23642;42.658;23.350;2022-09-19T09:44:20;55104.84;;;-146.31;44.37
2036;BME280;23642;42.658;23.350;2022-09-19T09:47:00;55154.41;;;-146.31;45.41
2036;BME280;23642;42.658;23.350;2022-09-19T09:49:30;55080.06;;;-146.31;47.40
2036;BME280;23642;42.658;23.350;2022-09-19T09:52:11;55075.91;;;-146.31;47.41
2036;BME280;23642;42.658;23.350;2022-09-19T09:54:58;55125.50;;;-146.31;46.97
2036;BME280;23642;42.658;23.350;2022-09-19T09:57:47;55139.94;;;-146.31;46.01
2036;BME280;23642;42.658;23.350;2022-09-19T10:00:18;55129.63;;;-146.31;45.23
2036;BME280;23642;42.658;23.350;2022-09-19T10:03:15;55187.44;;;-146.31;43.52
2036;BME280;23642;42.658;23.350;2022-09-19T10:06:05;55265.94;;;-146.31;42.74
2036;BME280;23642;42.658;23.350;2022-09-19T10:08:38;55282.44;;;-146.31;44.00
2036;BME280;23642;42.658;23.350;2022-09-19T10:11:15;55272.13;;;-146.31;43.90
2036;BME280;23642;42.658;23.350;2022-09-19T10:13:48;55315.50;;;-146.31;43.86
2036;BME280;23642;42.658;23.350;2022-09-19T10:16:28;55332.03;;;-146.31;43.62
2036;BME280;23642;42.658;23.350;2022-09-19T10:19:21;55313.44;;;-146.31;44.55
2036;BME280;23642;42.658;23.350;2022-09-19T10:21:53;55338.22;;;-146.31;43.67
2036;BME280;23642;42.658;23.350;2022-09-19T10:24:40;55344.41;;;-146.31;43.89
2036;BME280;23642;42.658;23.350;2022-09-19T10:27:14;55336.16;;;-146.31;43.06
2036;BME280;23642;42.658;23.350;2022-09-19T10:30:00;55315.50;;;-146.31;42.84
2036;BME280;23642;42.658;23.350;2022-09-19T10:32:31;55332.03;;;-146.31;42.66
2036;BME280;23642;42.658;23.350;2022-09-19T10:35:21;55323.75;;;-146.31;42.87
2036;BME280;23642;42.658;23.350;2022-09-19T10:37:53;55346.47;;;-146.31;41.93
2036;BME280;23642;42.658;23.350;2022-09-19T10:40:21;55340.28;;;-146.31;42.37
2036;BME280;23642;42.658;23.350;2022-09-19T10:42:51;55377.47;;;-146.31;42.42
2036;BME280;23642;42.658;23.350;2022-09-19T10:45:22;55385.72;;;-146.31;41.67
2036;BME280;23642;42.658;23.350;2022-09-19T10:47:53;55369.19;;;-146.31;41.67
2036;BME280;23642;42.658;23.350;2022-09-19T10:50:23;55389.84;;;-146.31;40.87
2036;BME280;23642;42.658;23.350;2022-09-19T10:52:58;55398.13;;;-146.31;41.44
2036;BME280;23642;42.658;23.350;2022-09-19T10:55:26;55393.97;;;-146.31;41.94
2036;BME280;23642;42.658;23.350;2022-09-19T10:58:01;55408.44;;;-146.31;41.59
2036;BME280;23642;42.658;23.350;2022-09-19T11:00:44;55391.91;;;-146.31;41.90
2036;BME280;23642;42.658;23.350;2022-09-19T11:03:21;55398.13;;;-146.31;42.07
2036;BME280;23642;42.658;23.350;2022-09-19T11:06:12;55377.47;;;-146.31;42.20
2036;BME280;23642;42.658;23.350;2022-09-19T11:08:43;55389.84;;;-146.31;42.31
2036;BME280;23642;42.658;23.350;2022-09-19T11:11:26;55356.81;;;-146.31;41.20
2036;BME280;23642;42.658;23.350;2022-09-19T11:14:13;55377.47;;;-146.31;41.25
2036;BME280;23642;42.658;23.350;2022-09-19T11:16:58;55389.84;;;-146.31;40.49
2036;BME280;23642;42.658;23.350;2022-09-19T11:19:39;55412.56;;;-146.31;39.87
2036;BME280;23642;42.658;23.350;2022-09-19T11:22:23;55393.97;;;-146.31;41.61
2036;BME280;23642;42.658;23.350;2022-09-19T11:25:02;55422.91;;;-146.31;39.94
2036;BME280;23642;42.658;23.350;2022-09-19T11:27:55;55449.75;;;-146.31;40.14
2036;BME280;23642;42.658;23.350;2022-09-19T11:30:27;55435.28;;;-146.31;40.79
2036;BME280;23642;42.658;23.350;2022-09-19T11:33:17;55437.34;;;-146.31;40.38
2036;BME280;23642;42.658;23.350;2022-09-19T11:35:57;55422.91;;;-146.31;39.62
2036;BME280;23642;42.658;23.350;2022-09-19T11:38:34;55404.31;;;-146.31;39.56
2036;BME280;23642;42.658;23.350;2022-09-19T11:41:22;55443.56;;;-146.31;39.48
2036;BME280;23642;42.658;23.350;2022-09-19T11:44:03;55464.22;;;-146.31;39.32
2036;BME280;23642;42.658;23.350;2022-09-19T11:46:37;55460.06;;;-146.31;39.79
2036;BME280;23642;42.658;23.350;2022-09-19T11:49:26;55460.06;;;-146.31;39.11
2036;BME280;23642;42.658;23.350;2022-09-19T11:52:03;55468.34;;;-146.31;38.44
2036;BME280;23642;42.658;23.350;2022-09-19T11:54:58;55449.75;;;-146.31;39.31
2036;BME280;23642;42.658;23.350;2022-09-19T11:57:37;55445.63;;;-146.31;38.72
2036;BME280;23642;42.658;23.350;2022-09-19T12:00:18;55439.41;;;-146.31;37.97
2036;BME280;23642;42.658;23.350;2022-09-19T12:05:57;55443.56;;;-146.31;38.09
2036;BME280;23642;42.658;23.350;2022-09-19T12:08:35;55451.81;;;-146.31;37.04
2036;BME280;23642;42.658;23.350;2022-09-19T12:11:15;55472.47;;;-146.31;36.67
2036;BME280;23642;42.658;23.350;2022-09-19T12:13:46;55460.06;;;-146.31;36.64
2036;BME280;23642;42.658;23.350;2022-09-19T12:16:18;55505.50;;;-146.31;35.96
2036;BME280;23642;42.658;23.350;2022-09-19T12:18:52;55513.78;;;-146.31;35.91
2036;BME280;23642;42.658;23.350;2022-09-19T12:21:22;55538.56;;;-146.31;35.49
2036;BME280;23642;42.658;23.350;2022-09-19T12:23:54;55546.81;;;-146.31;35.07
2036;BME280;23642;42.658;23.350;2022-09-19T12:26:50;55563.34;;;-146.31;34.59
2036;BME280;23642;42.658;23.350;2022-09-19T12:29:25;55579.88;;;-146.31;33.57
2036;BME280;23642;42.658;23.350;2022-09-19T12:32:04;55590.19;;;-146.31;33.34
2036;BME280;23642;42.658;23.350;2022-09-19T12:34:46;55534.44;;;-146.31;34.52
2036;BME280;23642;42.658;23.350;2022-09-19T12:37:22;55544.75;;;-146.31;34.22
2036;BME280;23642;42.658;23.350;2022-09-19T12:40:13;55588.13;;;-146.31;33.02
2036;BME280;23642;42.658;23.350;2022-09-19T12:42:56;55625.31;;;-146.31;32.44
2036;BME280;23642;42.658;23.350;2022-09-19T12:45:41;55608.78;;;-146.31;32.42
2036;BME280;23642;42.658;23.350;2022-09-19T12:48:16;55575.75;;;-146.31;32.74
2036;BME280;23642;42.658;23.350;2022-09-19T12:50:49;55615.00;;;-146.31;31.95
2036;BME280;23642;42.658;23.350;2022-09-19T12:53:25;55627.38;;;-146.31;31.11
2036;BME280;23642;42.658;23.350;2022-09-19T12:56:01;55637.72;;;-146.31;30.50
2036;BME280;23642;42.658;23.350;2022-09-19T12:58:36;55610.84;;;-146.31;31.63
2036;BME280;23642;42.658;23.350;2022-09-19T13:01:17;55617.06;;;-146.31;31.14
2036;BME280;23642;42.658;23.350;2022-09-19T13:03:50;55648.03;;;-146.31;30.12
2036;BME280;23642;42.658;23.350;2022-09-19T13:06:21;55666.63;;;-146.31;30.58
2036;BME280;23642;42.658;23.350;2022-09-19T13:08:54;55697.63;;;-146.31;30.40
2036;BME280;23642;42.658;23.350;2022-09-19T13:11:27;55718.28;;;-146.31;29.53
2036;BME280;23642;42.658;23.350;2022-09-19T13:14:05;55712.06;;;-146.31;29.45
2036;BME280;23642;42.658;23.350;2022-09-19T13:16:38;55743.06;;;-146.31;29.48